Chester, SC

5:17 PM EDT on September 28, 2016 (GMT -0400)
Mirror Lakes | | Change Station

Elev 531 ft 34.74 °N, 81.23 °W | Updated 19 seconds ago

Mostly Cloudy
Mostly Cloudy
85.3 °F
Feels Like 91 °F
N
0.0
Wind Variable Wind from South

Today
High -- | Low -- °F
--% Chance of Precip.
Yesterday
High -- | Low -- °F
Precip. -- in
Pressure 29.88 in
Visibility 10.0 miles
Clouds Mostly Cloudy 4400 ft
Mostly Cloudy 6500 ft
Heat Index 91 °F
Dew Point 71 °F
Humidity 63%
Rainfall 0.00 in
Snow Depth Not available.
7:17 AM 7:12 PM
Waning Crescent, 4% visible
METAR KDCM 282035Z AUTO 20005KT 10SM VCTS BKN044 BKN065 29/17 A2988 RMK AO2 LTG DSNT NE THRU SE
Pressure 29.88 in
Visibility 10.0 miles
Clouds Mostly Cloudy 4400 ft
Mostly Cloudy 6500 ft
Heat Index 91 °F
Dew Point 71 °F
Humidity 63%
Rainfall 0.00 in
Snow Depth Not available.
7:17 AM 7:12 PM
Waning Crescent, 4% visible
METAR KDCM 282035Z AUTO 20005KT 10SM VCTS BKN044 BKN065 29/17 A2988 RMK AO2 LTG DSNT NE THRU SE

10-Day Weather Forecast

Almanac

Astronomy

Sep. 28, 2016 Rise Set
Actual Time
Civil Twilight
Nautical Twilight
Astronomical Twilight
Moon
Length of Visible Light
Length of Day
Tomorrow will be .
, % of the Moon is Illuminated

Today's Extremes

State Highs State Lows

Community

WunderPhotos

Upload Photos

1,942,328 photos uploaded!

WunderBlog® & News

Nearby

Air Quality

  Air Quality AQ Index Pollutant
Not available.

Snow Depth

Station Depth Elevation

Earthquake Activity

City Distance Mag. Time & Date
Minimum magnitude displayed is 2.5.

Coastal Water Temperatures

Place Temperature

Stations

Nearby Weather Stations

Station Location Temp. Windchill Dew Point Humidity Wind Precip. Elev Updated Type
                   

Watches & Warnings

There are currently no watches in effect.